Pagrindinis puslapis
METAR-TAF:

METAR-TAF

Oro uostai :

Ušuaja, Argentina

platuma: 54-48S, ilguma: 068-19W, Aukštis: 16 m

Dabartinis oras

Ataskaita buvo paskelbta 36 minutes, ne 16:00 UTC
Ramus vėjas
Temperatūra 12°C
Drėgmė 50%
Slėgis 1010 hPa
Matomumas 10 km arba daugiau
Išsisklaidę debesys ne aukštis 4800 ft
Apsiniaukę ne aukštis 10000 ft

METAR: SAWH 221600Z 00000KT 9999 SCT048 OVC100 12/02 Q1010

Laikas: 13:36 (16:36 UTC)

Prognozė

Ataskaita buvo paskelbta 5 valandos ir 36 minutes, ne 11:00 UTC
Prognozė galioja nuo 22 metu 12 UTC su 23 metu 12 UTC
Vėjas 7 kt nuo kintamojo kryptimis
Matomumas 10 km arba daugiau
Su prošvaistėmis ne aukštis 2000 ft
Su prošvaistėmis ne aukštis 3000 ft
Tapsmas
nuo 22 metu 22 UTC su 22 metu 24 UTC
Vėjas 10 kt iš Šiaurės Vakarų
Su prošvaistėmis ne aukštis 1500 ft
Su prošvaistėmis ne aukštis 2000 ft
Laikinai
nuo 23 metu 00 UTC su 23 metu 06 UTC
Matomumas: 5000 m
lietus

TAF: SAWH 221100Z 2212/2312 VRB07KT 9999 BKN020 BKN030 TX14/2219Z TN05/2212Z BECMG 2222/2224 32010KT BKN015 BKN020 TEMPO 2300/2306 5000 RA

Orai ataskaitas ir orų prognozės (METAR, TAF).

turimą stotys yra geltonos ir raudonos taškus žemėlapyje.

Perkelti pele per norėdami pamatyti stoties vardą.

Tada spustelėkite, norėdami matyti oro stebėjimo ir prognozės.

Norėdami pakeisti žemėlapį: spustelėkite ant žalios mygtukų su juodo kryžiaus žemyn,; žalią mygtuką su brūkšneliu, jei norite nutolinti; arba žalių rodyklių gretimoms žemėlapius.


METAR-TAF: